sensor_id;sensor_type;location;lat;lon;timestamp;temperature;humidity
14170;DHT22;63889;50.596;8.690;2024-03-25T00:00:12;8.00;99.90
14170;DHT22;63889;50.596;8.690;2024-03-25T00:02:39;8.10;99.90
14170;DHT22;63889;50.596;8.690;2024-03-25T00:05:06;8.10;99.90
14170;DHT22;63889;50.596;8.690;2024-03-25T00:07:35;8.10;99.90
14170;DHT22;63889;50.596;8.690;2024-03-25T00:10:01;8.10;99.90
14170;DHT22;63889;50.596;8.690;2024-03-25T00:12:27;8.00;99.90
14170;DHT22;63889;50.596;8.690;2024-03-25T00:14:52;8.00;99.90
14170;DHT22;63889;50.596;8.690;2024-03-25T00:17:18;8.00;99.90
14170;DHT22;63889;50.596;8.690;2024-03-25T00:19:48;8.00;99.90
14170;DHT22;63889;50.596;8.690;2024-03-25T00:22:20;7.90;99.90
14170;DHT22;63889;50.596;8.690;2024-03-25T00:24:46;7.80;99.90
14170;DHT22;63889;50.596;8.690;2024-03-25T00:27:13;7.80;99.90
14170;DHT22;63889;50.596;8.690;2024-03-25T00:29:38;7.90;99.90
14170;DHT22;63889;50.596;8.690;2024-03-25T00:32:04;7.90;99.90
14170;DHT22;63889;50.596;8.690;2024-03-25T00:34:31;7.80;99.90
14170;DHT22;63889;50.596;8.690;2024-03-25T00:36:58;7.70;99.90
14170;DHT22;63889;50.596;8.690;2024-03-25T00:39:25;7.80;99.90
14170;DHT22;63889;50.596;8.690;2024-03-25T00:41:54;7.80;99.90
14170;DHT22;63889;50.596;8.690;2024-03-25T00:44:20;7.80;99.90
14170;DHT22;63889;50.596;8.690;2024-03-25T00:46:46;7.80;99.90
14170;DHT22;63889;50.596;8.690;2024-03-25T00:49:11;7.90;99.90
14170;DHT22;63889;50.596;8.690;2024-03-25T00:51:37;7.80;99.90
14170;DHT22;63889;50.596;8.690;2024-03-25T00:54:03;7.80;99.90
14170;DHT22;63889;50.596;8.690;2024-03-25T00:56:30;7.90;99.90
14170;DHT22;63889;50.596;8.690;2024-03-25T00:58:56;8.00;99.90
14170;DHT22;63889;50.596;8.690;2024-03-25T01:01:23;7.90;99.90
14170;DHT22;63889;50.596;8.690;2024-03-25T01:03:49;7.90;99.90
14170;DHT22;63889;50.596;8.690;2024-03-25T01:06:14;7.90;99.90
14170;DHT22;63889;50.596;8.690;2024-03-25T01:08:40;7.80;99.90
14170;DHT22;63889;50.596;8.690;2024-03-25T01:11:05;7.70;99.90
14170;DHT22;63889;50.596;8.690;2024-03-25T01:13:31;7.60;99.90
14170;DHT22;63889;50.596;8.690;2024-03-25T01:15:57;7.80;99.90
14170;DHT22;63889;50.596;8.690;2024-03-25T01:18:22;7.70;99.90
14170;DHT22;63889;50.596;8.690;2024-03-25T01:20:48;7.60;99.90
14170;DHT22;63889;50.596;8.690;2024-03-25T01:23:15;7.70;99.90
14170;DHT22;63889;50.596;8.690;2024-03-25T01:25:40;7.80;99.90
14170;DHT22;63889;50.596;8.690;2024-03-25T01:28:06;7.70;99.90
14170;DHT22;63889;50.596;8.690;2024-03-25T01:30:32;7.60;99.90
14170;DHT22;63889;50.596;8.690;2024-03-25T01:33:00;7.60;99.90
14170;DHT22;63889;50.596;8.690;2024-03-25T01:35:26;7.60;99.90
14170;DHT22;63889;50.596;8.690;2024-03-25T01:37:52;7.60;99.90
14170;DHT22;63889;50.596;8.690;2024-03-25T01:40:18;7.40;99.90
14170;DHT22;63889;50.596;8.690;2024-03-25T01:42:44;7.30;99.90
14170;DHT22;63889;50.596;8.690;2024-03-25T01:45:20;7.30;99.90
14170;DHT22;63889;50.596;8.690;2024-03-25T01:47:45;7.40;99.90
14170;DHT22;63889;50.596;8.690;2024-03-25T01:50:11;7.50;99.90
14170;DHT22;63889;50.596;8.690;2024-03-25T01:52:37;7.50;99.90
14170;DHT22;63889;50.596;8.690;2024-03-25T01:55:03;7.50;99.90
14170;DHT22;63889;50.596;8.690;2024-03-25T01:57:30;7.50;99.90
14170;DHT22;63889;50.596;8.690;2024-03-25T01:59:56;7.50;99.90
14170;DHT22;63889;50.596;8.690;2024-03-25T02:02:21;7.50;99.90
14170;DHT22;63889;50.596;8.690;2024-03-25T02:04:47;7.40;99.90
14170;DHT22;63889;50.596;8.690;2024-03-25T02:07:13;7.40;99.90
14170;DHT22;63889;50.596;8.690;2024-03-25T02:09:39;7.50;99.90
14170;DHT22;63889;50.596;8.690;2024-03-25T02:12:06;7.50;99.90
14170;DHT22;63889;50.596;8.690;2024-03-25T02:14:34;7.50;99.90
14170;DHT22;63889;50.596;8.690;2024-03-25T02:17:00;7.50;99.90
14170;DHT22;63889;50.596;8.690;2024-03-25T02:19:27;7.30;99.90
14170;DHT22;63889;50.596;8.690;2024-03-25T02:21:53;7.30;99.90
14170;DHT22;63889;50.596;8.690;2024-03-25T02:24:20;7.40;99.90
14170;DHT22;63889;50.596;8.690;2024-03-25T02:26:49;7.30;99.90
14170;DHT22;63889;50.596;8.690;2024-03-25T02:29:14;7.30;99.90
14170;DHT22;63889;50.596;8.690;2024-03-25T02:31:40;7.30;99.90
14170;DHT22;63889;50.596;8.690;2024-03-25T02:34:05;7.10;99.90
14170;DHT22;63889;50.596;8.690;2024-03-25T02:36:31;7.20;99.90
14170;DHT22;63889;50.596;8.690;2024-03-25T02:38:58;7.30;99.90
14170;DHT22;63889;50.596;8.690;2024-03-25T02:41:24;7.30;99.90
14170;DHT22;63889;50.596;8.690;2024-03-25T02:43:50;7.30;99.90
14170;DHT22;63889;50.596;8.690;2024-03-25T02:46:15;7.20;99.90
14170;DHT22;63889;50.596;8.690;2024-03-25T02:48:41;7.00;99.90
14170;DHT22;63889;50.596;8.690;2024-03-25T02:51:06;7.00;99.90
14170;DHT22;63889;50.596;8.690;2024-03-25T02:53:32;7.00;99.90
14170;DHT22;63889;50.596;8.690;2024-03-25T02:55:57;7.00;99.90
14170;DHT22;63889;50.596;8.690;2024-03-25T02:58:23;6.90;99.90
14170;DHT22;63889;50.596;8.690;2024-03-25T03:00:48;6.90;99.90
14170;DHT22;63889;50.596;8.690;2024-03-25T03:03:14;7.00;99.90
14170;DHT22;63889;50.596;8.690;2024-03-25T03:05:39;7.00;99.90
14170;DHT22;63889;50.596;8.690;2024-03-25T03:08:05;7.10;99.90
14170;DHT22;63889;50.596;8.690;2024-03-25T03:10:31;7.20;99.90
14170;DHT22;63889;50.596;8.690;2024-03-25T03:12:56;7.20;99.90
14170;DHT22;63889;50.596;8.690;2024-03-25T03:15:22;7.30;99.90
14170;DHT22;63889;50.596;8.690;2024-03-25T03:17:47;7.50;99.90
14170;DHT22;63889;50.596;8.690;2024-03-25T03:20:13;7.50;99.90
14170;DHT22;63889;50.596;8.690;2024-03-25T03:22:38;7.50;99.90
14170;DHT22;63889;50.596;8.690;2024-03-25T03:25:04;7.40;99.90
14170;DHT22;63889;50.596;8.690;2024-03-25T03:27:30;7.40;99.90
14170;DHT22;63889;50.596;8.690;2024-03-25T03:29:56;7.30;99.90
14170;DHT22;63889;50.596;8.690;2024-03-25T03:32:21;7.20;99.90
14170;DHT22;63889;50.596;8.690;2024-03-25T03:34:47;7.10;99.90
14170;DHT22;63889;50.596;8.690;2024-03-25T03:37:12;7.20;99.90
14170;DHT22;63889;50.596;8.690;2024-03-25T03:39:41;7.30;99.90
14170;DHT22;63889;50.596;8.690;2024-03-25T03:42:06;7.20;99.90
14170;DHT22;63889;50.596;8.690;2024-03-25T03:44:32;7.30;99.90
14170;DHT22;63889;50.596;8.690;2024-03-25T03:46:57;7.30;99.90
14170;DHT22;63889;50.596;8.690;2024-03-25T03:49:23;7.40;99.90
14170;DHT22;63889;50.596;8.690;2024-03-25T03:51:49;7.20;99.90
14170;DHT22;63889;50.596;8.690;2024-03-25T03:54:14;7.30;99.90
14170;DHT22;63889;50.596;8.690;2024-03-25T03:56:40;7.30;99.90
14170;DHT22;63889;50.596;8.690;2024-03-25T03:59:05;7.20;99.90
14170;DHT22;63889;50.596;8.690;2024-03-25T04:01:31;7.30;99.90
14170;DHT22;63889;50.596;8.690;2024-03-25T04:03:56;7.30;99.90
14170;DHT22;63889;50.596;8.690;2024-03-25T04:06:22;7.40;99.90
14170;DHT22;63889;50.596;8.690;2024-03-25T04:08:47;7.40;99.90
14170;DHT22;63889;50.596;8.690;2024-03-25T04:11:13;7.30;99.90
14170;DHT22;63889;50.596;8.690;2024-03-25T04:13:38;7.30;99.90
14170;DHT22;63889;50.596;8.690;2024-03-25T04:16:05;7.30;99.90
14170;DHT22;63889;50.596;8.690;2024-03-25T04:18:32;7.30;99.90
14170;DHT22;63889;50.596;8.690;2024-03-25T04:20:58;7.10;99.90
14170;DHT22;63889;50.596;8.690;2024-03-25T04:23:24;7.00;99.90
14170;DHT22;63889;50.596;8.690;2024-03-25T04:25:50;7.00;99.90
14170;DHT22;63889;50.596;8.690;2024-03-25T04:28:16;6.90;99.90
14170;DHT22;63889;50.596;8.690;2024-03-25T04:30:41;6.90;99.90
14170;DHT22;63889;50.596;8.690;2024-03-25T04:33:07;6.80;99.90
14170;DHT22;63889;50.596;8.690;2024-03-25T04:35:33;6.80;99.90
14170;DHT22;63889;50.596;8.690;2024-03-25T04:37:59;6.80;99.90
14170;DHT22;63889;50.596;8.690;2024-03-25T04:40:25;7.00;99.90
14170;DHT22;63889;50.596;8.690;2024-03-25T04:42:50;7.10;99.90
14170;DHT22;63889;50.596;8.690;2024-03-25T04:45:16;7.10;99.90
14170;DHT22;63889;50.596;8.690;2024-03-25T04:47:41;7.10;99.90
14170;DHT22;63889;50.596;8.690;2024-03-25T04:50:07;7.10;99.90
14170;DHT22;63889;50.596;8.690;2024-03-25T04:52:33;7.20;99.90
14170;DHT22;63889;50.596;8.690;2024-03-25T04:54:58;7.30;99.90
14170;DHT22;63889;50.596;8.690;2024-03-25T04:57:24;7.30;99.90
14170;DHT22;63889;50.596;8.690;2024-03-25T04:59:50;7.20;99.90
14170;DHT22;63889;50.596;8.690;2024-03-25T05:02:15;7.10;99.90
14170;DHT22;63889;50.596;8.690;2024-03-25T05:04:41;7.10;99.90
14170;DHT22;63889;50.596;8.690;2024-03-25T05:07:06;7.10;99.90
14170;DHT22;63889;50.596;8.690;2024-03-25T05:09:32;7.10;99.90
14170;DHT22;63889;50.596;8.690;2024-03-25T05:11:58;7.00;99.90
14170;DHT22;63889;50.596;8.690;2024-03-25T05:14:24;7.00;99.90
14170;DHT22;63889;50.596;8.690;2024-03-25T05:16:50;7.00;99.90
14170;DHT22;63889;50.596;8.690;2024-03-25T05:19:17;7.10;99.90
14170;DHT22;63889;50.596;8.690;2024-03-25T05:21:43;6.90;99.90
14170;DHT22;63889;50.596;8.690;2024-03-25T05:24:09;6.80;99.90
14170;DHT22;63889;50.596;8.690;2024-03-25T05:26:35;6.80;99.90
14170;DHT22;63889;50.596;8.690;2024-03-25T05:29:00;6.90;99.90
14170;DHT22;63889;50.596;8.690;2024-03-25T05:31:26;6.90;99.90
14170;DHT22;63889;50.596;8.690;2024-03-25T05:33:51;6.80;99.90
14170;DHT22;63889;50.596;8.690;2024-03-25T05:36:17;6.80;99.90
14170;DHT22;63889;50.596;8.690;2024-03-25T05:38:43;6.90;99.90
14170;DHT22;63889;50.596;8.690;2024-03-25T05:41:09;7.00;99.90
14170;DHT22;63889;50.596;8.690;2024-03-25T05:43:34;6.90;99.90
14170;DHT22;63889;50.596;8.690;2024-03-25T05:46:00;7.00;99.90
14170;DHT22;63889;50.596;8.690;2024-03-25T05:48:26;7.00;99.90
14170;DHT22;63889;50.596;8.690;2024-03-25T05:51:05;6.90;99.90
14170;DHT22;63889;50.596;8.690;2024-03-25T05:53:31;6.90;99.90
14170;DHT22;63889;50.596;8.690;2024-03-25T05:55:57;6.90;99.90
14170;DHT22;63889;50.596;8.690;2024-03-25T05:58:24;6.80;99.90
14170;DHT22;63889;50.596;8.690;2024-03-25T06:00:50;6.80;99.90
14170;DHT22;63889;50.596;8.690;2024-03-25T06:03:16;6.80;99.90
14170;DHT22;63889;50.596;8.690;2024-03-25T06:05:42;6.80;99.90
14170;DHT22;63889;50.596;8.690;2024-03-25T06:08:08;6.90;99.90
14170;DHT22;63889;50.596;8.690;2024-03-25T06:10:41;6.80;99.90
14170;DHT22;63889;50.596;8.690;2024-03-25T06:13:07;6.80;99.90
14170;DHT22;63889;50.596;8.690;2024-03-25T06:15:32;6.80;99.90
14170;DHT22;63889;50.596;8.690;2024-03-25T06:17:58;6.90;99.90
14170;DHT22;63889;50.596;8.690;2024-03-25T06:20:23;6.90;99.90
14170;DHT22;63889;50.596;8.690;2024-03-25T06:22:49;6.90;99.90
14170;DHT22;63889;50.596;8.690;2024-03-25T06:25:16;6.90;99.90
14170;DHT22;63889;50.596;8.690;2024-03-25T06:27:42;6.90;99.90
14170;DHT22;63889;50.596;8.690;2024-03-25T06:30:08;6.80;99.90
14170;DHT22;63889;50.596;8.690;2024-03-25T06:32:52;6.80;99.90
14170;DHT22;63889;50.596;8.690;2024-03-25T06:35:36;6.80;99.90
14170;DHT22;63889;50.596;8.690;2024-03-25T06:38:02;6.90;99.90
14170;DHT22;63889;50.596;8.690;2024-03-25T06:40:27;6.80;99.90
14170;DHT22;63889;50.596;8.690;2024-03-25T06:42:53;6.90;99.90
14170;DHT22;63889;50.596;8.690;2024-03-25T06:45:18;6.90;99.90
14170;DHT22;63889;50.596;8.690;2024-03-25T06:47:44;6.90;99.90
14170;DHT22;63889;50.596;8.690;2024-03-25T06:50:09;7.00;99.90
14170;DHT22;63889;50.596;8.690;2024-03-25T06:52:35;7.00;99.90
14170;DHT22;63889;50.596;8.690;2024-03-25T06:55:01;7.00;99.90
14170;DHT22;63889;50.596;8.690;2024-03-25T06:57:26;7.10;99.90
14170;DHT22;63889;50.596;8.690;2024-03-25T06:59:52;7.10;99.90
14170;DHT22;63889;50.596;8.690;2024-03-25T07:02:17;7.10;99.90
14170;DHT22;63889;50.596;8.690;2024-03-25T07:04:43;7.10;99.90
14170;DHT22;63889;50.596;8.690;2024-03-25T07:07:08;7.10;99.90
14170;DHT22;63889;50.596;8.690;2024-03-25T07:09:34;7.10;99.90
14170;DHT22;63889;50.596;8.690;2024-03-25T07:11:59;7.10;99.90
14170;DHT22;63889;50.596;8.690;2024-03-25T07:14:25;7.10;99.90
14170;DHT22;63889;50.596;8.690;2024-03-25T07:16:50;7.20;99.90
14170;DHT22;63889;50.596;8.690;2024-03-25T07:19:16;7.20;99.90
14170;DHT22;63889;50.596;8.690;2024-03-25T07:21:41;7.20;99.90
14170;DHT22;63889;50.596;8.690;2024-03-25T07:24:07;7.40;99.90
14170;DHT22;63889;50.596;8.690;2024-03-25T07:26:33;7.50;99.90
14170;DHT22;63889;50.596;8.690;2024-03-25T07:28:58;7.60;99.90
14170;DHT22;63889;50.596;8.690;2024-03-25T07:31:24;7.60;99.90
14170;DHT22;63889;50.596;8.690;2024-03-25T07:33:50;7.60;99.90
14170;DHT22;63889;50.596;8.690;2024-03-25T07:36:16;7.70;99.90
14170;DHT22;63889;50.596;8.690;2024-03-25T07:38:42;7.60;99.90
14170;DHT22;63889;50.596;8.690;2024-03-25T07:41:08;7.70;99.90
14170;DHT22;63889;50.596;8.690;2024-03-25T07:43:34;7.70;99.90
14170;DHT22;63889;50.596;8.690;2024-03-25T07:45:59;7.70;99.90
14170;DHT22;63889;50.596;8.690;2024-03-25T07:48:25;7.80;99.90
14170;DHT22;63889;50.596;8.690;2024-03-25T07:50:51;7.70;99.90
14170;DHT22;63889;50.596;8.690;2024-03-25T07:53:16;7.70;99.90
14170;DHT22;63889;50.596;8.690;2024-03-25T07:55:42;7.70;99.90
14170;DHT22;63889;50.596;8.690;2024-03-25T07:58:07;7.70;99.90
14170;DHT22;63889;50.596;8.690;2024-03-25T08:00:33;7.60;99.90
14170;DHT22;63889;50.596;8.690;2024-03-25T08:03:00;7.80;99.90
14170;DHT22;63889;50.596;8.690;2024-03-25T08:05:25;7.80;99.90
14170;DHT22;63889;50.596;8.690;2024-03-25T08:07:51;7.80;99.90
14170;DHT22;63889;50.596;8.690;2024-03-25T08:10:16;7.90;99.90
14170;DHT22;63889;50.596;8.690;2024-03-25T08:12:42;7.80;99.90
14170;DHT22;63889;50.596;8.690;2024-03-25T08:15:08;7.90;99.90
14170;DHT22;63889;50.596;8.690;2024-03-25T08:17:33;8.00;99.90
14170;DHT22;63889;50.596;8.690;2024-03-25T08:19:59;7.90;99.90
14170;DHT22;63889;50.596;8.690;2024-03-25T08:22:25;7.90;99.90
14170;DHT22;63889;50.596;8.690;2024-03-25T08:24:50;7.80;99.90
14170;DHT22;63889;50.596;8.690;2024-03-25T08:27:16;7.70;99.90
14170;DHT22;63889;50.596;8.690;2024-03-25T08:29:41;7.90;99.90
14170;DHT22;63889;50.596;8.690;2024-03-25T08:32:07;8.10;99.90
14170;DHT22;63889;50.596;8.690;2024-03-25T08:34:33;8.20;99.90
14170;DHT22;63889;50.596;8.690;2024-03-25T08:36:58;8.30;99.90
14170;DHT22;63889;50.596;8.690;2024-03-25T08:39:24;8.40;99.90
14170;DHT22;63889;50.596;8.690;2024-03-25T08:41:49;8.30;99.90
14170;DHT22;63889;50.596;8.690;2024-03-25T08:44:15;8.20;99.90
14170;DHT22;63889;50.596;8.690;2024-03-25T08:46:40;8.20;99.90
14170;DHT22;63889;50.596;8.690;2024-03-25T08:49:06;8.30;99.90
14170;DHT22;63889;50.596;8.690;2024-03-25T08:51:32;8.20;99.90
14170;DHT22;63889;50.596;8.690;2024-03-25T08:53:57;8.30;99.90
14170;DHT22;63889;50.596;8.690;2024-03-25T08:56:23;8.50;99.90
14170;DHT22;63889;50.596;8.690;2024-03-25T08:58:48;8.70;99.90
14170;DHT22;63889;50.596;8.690;2024-03-25T09:01:14;8.60;99.90
14170;DHT22;63889;50.596;8.690;2024-03-25T09:03:41;8.70;99.90
14170;DHT22;63889;50.596;8.690;2024-03-25T09:06:07;8.80;99.90
14170;DHT22;63889;50.596;8.690;2024-03-25T09:08:33;9.00;99.90
14170;DHT22;63889;50.596;8.690;2024-03-25T09:11:20;9.00;99.90
14170;DHT22;63889;50.596;8.690;2024-03-25T09:13:45;8.90;99.90
14170;DHT22;63889;50.596;8.690;2024-03-25T09:16:11;9.00;99.90
14170;DHT22;63889;50.596;8.690;2024-03-25T09:18:36;9.00;99.90
14170;DHT22;63889;50.596;8.690;2024-03-25T09:21:02;9.10;99.90
14170;DHT22;63889;50.596;8.690;2024-03-25T09:23:28;9.20;99.90
14170;DHT22;63889;50.596;8.690;2024-03-25T09:25:54;9.10;99.90
14170;DHT22;63889;50.596;8.690;2024-03-25T09:28:19;9.10;99.90
14170;DHT22;63889;50.596;8.690;2024-03-25T09:30:47;9.00;99.90
14170;DHT22;63889;50.596;8.690;2024-03-25T09:33:13;9.00;99.90
14170;DHT22;63889;50.596;8.690;2024-03-25T09:35:39;9.00;99.90
14170;DHT22;63889;50.596;8.690;2024-03-25T09:38:05;9.20;99.90
14170;DHT22;63889;50.596;8.690;2024-03-25T09:40:31;9.00;99.90
14170;DHT22;63889;50.596;8.690;2024-03-25T09:42:57;9.00;99.90
14170;DHT22;63889;50.596;8.690;2024-03-25T09:45:25;9.00;99.90
14170;DHT22;63889;50.596;8.690;2024-03-25T09:47:51;9.00;99.90
14170;DHT22;63889;50.596;8.690;2024-03-25T09:50:17;9.20;99.90
14170;DHT22;63889;50.596;8.690;2024-03-25T09:52:45;9.40;99.90
14170;DHT22;63889;50.596;8.690;2024-03-25T09:55:11;9.40;99.90
14170;DHT22;63889;50.596;8.690;2024-03-25T09:57:36;9.10;99.90
14170;DHT22;63889;50.596;8.690;2024-03-25T10:00:05;9.40;99.90
14170;DHT22;63889;50.596;8.690;2024-03-25T10:02:32;9.40;99.90
14170;DHT22;63889;50.596;8.690;2024-03-25T10:04:59;9.60;99.90
14170;DHT22;63889;50.596;8.690;2024-03-25T10:07:25;9.80;99.90
14170;DHT22;63889;50.596;8.690;2024-03-25T10:09:51;9.90;99.90
14170;DHT22;63889;50.596;8.690;2024-03-25T10:12:17;9.80;99.90
14170;DHT22;63889;50.596;8.690;2024-03-25T10:14:43;9.80;99.90
14170;DHT22;63889;50.596;8.690;2024-03-25T10:17:09;9.90;99.90
14170;DHT22;63889;50.596;8.690;2024-03-25T10:19:35;10.10;99.90
14170;DHT22;63889;50.596;8.690;2024-03-25T10:22:02;10.10;99.90
14170;DHT22;63889;50.596;8.690;2024-03-25T10:24:40;10.00;99.90
14170;DHT22;63889;50.596;8.690;2024-03-25T10:27:09;10.00;99.90
14170;DHT22;63889;50.596;8.690;2024-03-25T10:29:35;10.00;99.90
14170;DHT22;63889;50.596;8.690;2024-03-25T10:32:01;10.10;99.90
14170;DHT22;63889;50.596;8.690;2024-03-25T10:34:27;10.40;99.90
14170;DHT22;63889;50.596;8.690;2024-03-25T10:37:04;10.70;99.90
14170;DHT22;63889;50.596;8.690;2024-03-25T10:39:31;10.70;99.90
14170;DHT22;63889;50.596;8.690;2024-03-25T10:41:58;10.30;99.90
14170;DHT22;63889;50.596;8.690;2024-03-25T10:44:26;10.80;99.90
14170;DHT22;63889;50.596;8.690;2024-03-25T10:46:57;10.50;99.90
14170;DHT22;63889;50.596;8.690;2024-03-25T10:49:38;10.70;99.90
14170;DHT22;63889;50.596;8.690;2024-03-25T10:52:08;10.50;99.90
14170;DHT22;63889;50.596;8.690;2024-03-25T10:54:35;10.80;99.90
14170;DHT22;63889;50.596;8.690;2024-03-25T10:57:03;11.30;99.90
14170;DHT22;63889;50.596;8.690;2024-03-25T10:59:30;12.30;99.90
14170;DHT22;63889;50.596;8.690;2024-03-25T11:01:56;13.10;99.90
14170;DHT22;63889;50.596;8.690;2024-03-25T11:04:22;13.30;99.90
14170;DHT22;63889;50.596;8.690;2024-03-25T11:06:48;13.40;99.90
14170;DHT22;63889;50.596;8.690;2024-03-25T11:09:24;12.70;99.90
14170;DHT22;63889;50.596;8.690;2024-03-25T11:11:53;13.10;99.90
14170;DHT22;63889;50.596;8.690;2024-03-25T11:14:19;13.30;99.90
14170;DHT22;63889;50.596;8.690;2024-03-25T11:16:51;13.90;99.90
14170;DHT22;63889;50.596;8.690;2024-03-25T11:19:18;14.50;99.90
14170;DHT22;63889;50.596;8.690;2024-03-25T11:21:44;13.90;99.90
14170;DHT22;63889;50.596;8.690;2024-03-25T11:24:09;14.00;99.90
14170;DHT22;63889;50.596;8.690;2024-03-25T11:26:41;14.10;99.90
14170;DHT22;63889;50.596;8.690;2024-03-25T11:29:06;14.10;99.90
14170;DHT22;63889;50.596;8.690;2024-03-25T11:31:33;14.80;99.90
14170;DHT22;63889;50.596;8.690;2024-03-25T11:34:05;15.10;99.90
14170;DHT22;63889;50.596;8.690;2024-03-25T11:36:33;15.50;97.30
14170;DHT22;63889;50.596;8.690;2024-03-25T11:39:04;15.60;96.40
14170;DHT22;63889;50.596;8.690;2024-03-25T11:41:33;15.90;94.80
14170;DHT22;63889;50.596;8.690;2024-03-25T11:43:59;15.70;94.00
14170;DHT22;63889;50.596;8.690;2024-03-25T11:46:25;15.80;92.20
14170;DHT22;63889;50.596;8.690;2024-03-25T11:48:51;15.50;91.30
14170;DHT22;63889;50.596;8.690;2024-03-25T11:51:17;15.00;92.70
14170;DHT22;63889;50.596;8.690;2024-03-25T11:53:43;15.10;93.50
14170;DHT22;63889;50.596;8.690;2024-03-25T11:56:10;15.30;92.50
14170;DHT22;63889;50.596;8.690;2024-03-25T11:58:36;14.90;96.10
14170;DHT22;63889;50.596;8.690;2024-03-25T12:01:02;14.50;97.50
14170;DHT22;63889;50.596;8.690;2024-03-25T12:03:28;14.40;98.40
14170;DHT22;63889;50.596;8.690;2024-03-25T12:05:54;14.50;99.20
14170;DHT22;63889;50.596;8.690;2024-03-25T12:08:20;14.50;97.00
14170;DHT22;63889;50.596;8.690;2024-03-25T12:10:47;14.70;95.60
14170;DHT22;63889;50.596;8.690;2024-03-25T12:13:31;16.30;92.20
14170;DHT22;63889;50.596;8.690;2024-03-25T12:15:57;15.30;92.50
14170;DHT22;63889;50.596;8.690;2024-03-25T12:18:23;15.80;92.00
14170;DHT22;63889;50.596;8.690;2024-03-25T12:20:48;16.70;90.90
14170;DHT22;63889;50.596;8.690;2024-03-25T12:23:14;16.90;90.60
14170;DHT22;63889;50.596;8.690;2024-03-25T12:25:40;16.50;89.10
14170;DHT22;63889;50.596;8.690;2024-03-25T12:28:09;17.20;88.30
14170;DHT22;63889;50.596;8.690;2024-03-25T12:30:52;17.10;87.60
14170;DHT22;63889;50.596;8.690;2024-03-25T12:33:18;18.00;84.20
14170;DHT22;63889;50.596;8.690;2024-03-25T12:35:49;16.80;83.50
14170;DHT22;63889;50.596;8.690;2024-03-25T12:38:27;17.10;79.80
14170;DHT22;63889;50.596;8.690;2024-03-25T12:40:54;16.10;84.90
14170;DHT22;63889;50.596;8.690;2024-03-25T12:43:28;16.60;83.10
14170;DHT22;63889;50.596;8.690;2024-03-25T12:45:54;17.60;80.40
14170;DHT22;63889;50.596;8.690;2024-03-25T12:48:19;17.50;78.60
14170;DHT22;63889;50.596;8.690;2024-03-25T12:50:45;16.70;80.50
14170;DHT22;63889;50.596;8.690;2024-03-25T12:53:17;16.30;81.80
14170;DHT22;63889;50.596;8.690;2024-03-25T12:55:43;16.00;80.60
14170;DHT22;63889;50.596;8.690;2024-03-25T12:58:08;15.30;85.20
14170;DHT22;63889;50.596;8.690;2024-03-25T13:00:34;16.10;79.20
14170;DHT22;63889;50.596;8.690;2024-03-25T13:03:00;15.30;79.50
14170;DHT22;63889;50.596;8.690;2024-03-25T13:05:27;15.40;81.00
14170;DHT22;63889;50.596;8.690;2024-03-25T13:07:53;15.40;81.70
14170;DHT22;63889;50.596;8.690;2024-03-25T13:10:19;15.60;82.50
14170;DHT22;63889;50.596;8.690;2024-03-25T13:12:45;15.20;83.40
14170;DHT22;63889;50.596;8.690;2024-03-25T13:15:11;16.00;83.20
14170;DHT22;63889;50.596;8.690;2024-03-25T13:17:37;15.50;83.40
14170;DHT22;63889;50.596;8.690;2024-03-25T13:20:02;15.20;83.70
14170;DHT22;63889;50.596;8.690;2024-03-25T13:22:29;15.10;86.40
14170;DHT22;63889;50.596;8.690;2024-03-25T13:24:57;15.40;83.20
14170;DHT22;63889;50.596;8.690;2024-03-25T13:27:22;16.20;80.90
14170;DHT22;63889;50.596;8.690;2024-03-25T13:29:48;16.10;86.00
14170;DHT22;63889;50.596;8.690;2024-03-25T13:32:13;15.90;84.80
14170;DHT22;63889;50.596;8.690;2024-03-25T13:34:39;15.70;83.20
14170;DHT22;63889;50.596;8.690;2024-03-25T13:37:05;16.70;79.60
14170;DHT22;63889;50.596;8.690;2024-03-25T13:39:30;16.70;79.30
14170;DHT22;63889;50.596;8.690;2024-03-25T13:41:56;15.80;80.00
14170;DHT22;63889;50.596;8.690;2024-03-25T13:44:21;15.60;82.50
14170;DHT22;63889;50.596;8.690;2024-03-25T13:46:47;16.90;81.30
14170;DHT22;63889;50.596;8.690;2024-03-25T13:49:13;17.00;79.20
14170;DHT22;63889;50.596;8.690;2024-03-25T13:51:40;16.20;80.90
14170;DHT22;63889;50.596;8.690;2024-03-25T13:54:06;16.40;80.40
14170;DHT22;63889;50.596;8.690;2024-03-25T13:56:32;16.00;80.50
14170;DHT22;63889;50.596;8.690;2024-03-25T13:58:57;15.80;80.70
14170;DHT22;63889;50.596;8.690;2024-03-25T14:01:23;16.20;81.30
14170;DHT22;63889;50.596;8.690;2024-03-25T14:03:50;16.30;81.80
14170;DHT22;63889;50.596;8.690;2024-03-25T14:06:15;16.30;81.00
14170;DHT22;63889;50.596;8.690;2024-03-25T14:08:41;16.10;80.90
14170;DHT22;63889;50.596;8.690;2024-03-25T14:11:07;16.30;82.90
14170;DHT22;63889;50.596;8.690;2024-03-25T14:13:33;16.20;79.80
14170;DHT22;63889;50.596;8.690;2024-03-25T14:15:58;16.50;78.60
14170;DHT22;63889;50.596;8.690;2024-03-25T14:18:24;16.50;81.00
14170;DHT22;63889;50.596;8.690;2024-03-25T14:20:51;17.10;76.00
14170;DHT22;63889;50.596;8.690;2024-03-25T14:23:17;17.00;77.20
14170;DHT22;63889;50.596;8.690;2024-03-25T14:25:42;16.60;77.60
14170;DHT22;63889;50.596;8.690;2024-03-25T14:28:08;16.40;78.30
14170;DHT22;63889;50.596;8.690;2024-03-25T14:30:33;16.80;79.80
14170;DHT22;63889;50.596;8.690;2024-03-25T14:32:59;16.60;78.10
14170;DHT22;63889;50.596;8.690;2024-03-25T14:35:24;16.40;78.50
14170;DHT22;63889;50.596;8.690;2024-03-25T14:37:50;15.90;78.60
14170;DHT22;63889;50.596;8.690;2024-03-25T14:40:16;15.40;80.00
14170;DHT22;63889;50.596;8.690;2024-03-25T14:42:44;15.50;81.20
14170;DHT22;63889;50.596;8.690;2024-03-25T14:45:09;15.50;80.40
14170;DHT22;63889;50.596;8.690;2024-03-25T14:47:35;15.70;79.30
14170;DHT22;63889;50.596;8.690;2024-03-25T14:50:01;15.90;80.80
14170;DHT22;63889;50.596;8.690;2024-03-25T14:52:26;16.10;78.20
14170;DHT22;63889;50.596;8.690;2024-03-25T14:54:52;15.70;78.50
14170;DHT22;63889;50.596;8.690;2024-03-25T14:57:17;15.80;78.40
14170;DHT22;63889;50.596;8.690;2024-03-25T14:59:43;15.80;77.50
14170;DHT22;63889;50.596;8.690;2024-03-25T15:02:09;15.20;76.30
14170;DHT22;63889;50.596;8.690;2024-03-25T15:04:41;14.90;80.00
14170;DHT22;63889;50.596;8.690;2024-03-25T15:07:10;15.00;79.40
14170;DHT22;63889;50.596;8.690;2024-03-25T15:09:35;15.00;81.60
14170;DHT22;63889;50.596;8.690;2024-03-25T15:12:01;15.10;80.80
14170;DHT22;63889;50.596;8.690;2024-03-25T15:14:30;14.80;78.70
14170;DHT22;63889;50.596;8.690;2024-03-25T15:16:59;14.60;80.00
14170;DHT22;63889;50.596;8.690;2024-03-25T15:19:25;14.50;79.90
14170;DHT22;63889;50.596;8.690;2024-03-25T15:21:50;14.10;80.50
14170;DHT22;63889;50.596;8.690;2024-03-25T15:24:16;14.10;81.10
14170;DHT22;63889;50.596;8.690;2024-03-25T15:26:42;14.00;82.80
14170;DHT22;63889;50.596;8.690;2024-03-25T15:29:07;13.60;83.80
14170;DHT22;63889;50.596;8.690;2024-03-25T15:31:33;13.50;84.50
14170;DHT22;63889;50.596;8.690;2024-03-25T15:33:59;13.50;85.40